NCAR-RAP Real-Time Weather Data

Output produced by METARs form (12 May 2021  11:59 UTC)
found at http://weather.rap.ucar.edu/surface/
 
KABR 121153Z AUTO 15006KT 10SM CLR M01/M04 A3035 RMK AO2 SLP284 T10061044 10039 21022 53006
KABR 121053Z AUTO 14003KT 10SM CLR 01/M04 A3034 RMK AO2 SLP280 T00061039
KABR 120953Z AUTO 15004KT 10SM CLR 00/M04 A3033 RMK AO2 SLP278 T00001039
KABR 120853Z AUTO 20004KT 10SM CLR M01/M04 A3033 RMK AO2 SLP278 T10061039 51001
KABR 120753Z AUTO 16003KT 10SM CLR 01/M04 A3033 RMK AO2 SLP277 T00061039
KABR 120653Z AUTO 15004KT 10SM CLR 03/M03 A3033 RMK AO2 SLP278 T00281033
KABR 120553Z AUTO 15004KT 10SM CLR 04/M03 A3033 RMK AO2 SLP276 T00391033 10178 20033 401891028 50001
KABR 120453Z AUTO 19003KT 10SM CLR 06/M03 A3033 RMK AO2 SLP276 T00561033
KABR 120353Z AUTO 00000KT 7SM CLR 06/M02 A3033 RMK AO2 SLP276 T00611017
KABR 120253Z AUTO 00000KT 8SM CLR 08/M02 A3032 RMK AO2 SLP274 T00781022 53010
KABR 120153Z AUTO 22006KT 7SM CLR 12/M03 A3031 RMK AO2 SLP268 T01171028
KABR 120053Z AUTO 21006KT 10SM CLR 17/M05 A3030 RMK AO2 SLP265 T01671050
KABR 112353Z AUTO 24005KT 10SM CLR 18/M06 A3029 RMK AO2 SLP265 T01831056 10189 20150 55002
KABR 112253Z AUTO 17008KT 10SM CLR 18/M05 A3029 RMK AO2 SLP265 T01781050
KABR 112153Z AUTO VRB04KT 10SM CLR 18/M06 A3029 RMK AO2 SLP264 T01781061